Terminal Aerodrome Forecast
Issued by NWS San Angelo, TX

Home | Current Version | Previous Version | Text Only | Print | Product List | Glossary On
Versions: 1 2 3 4 5 6 7 8 9 10 11 12 13 14 15 16 17 18 19 20
011
FTUS44 KSJT 300709 AAA
TAFABI
TAF AMD
KABI 300709Z 3007/3106 02010KT P6SM SCT015 BKN120
     FM301000 15008KT P6SM BKN050
     FM301200 15010KT P6SM BKN025
     FM301800 18010KT P6SM BKN040=

USA.gov is the U.S. government's official web portal to all federal, state and local government web resources and services.